createdAt,value
2017-01-23T00:00:14.191Z,1025.61
2017-01-23T00:01:14.871Z,1025.65
2017-01-23T00:02:15.535Z,1025.62
2017-01-23T00:03:16.233Z,1025.66
2017-01-23T00:04:16.910Z,1025.66
2017-01-23T00:05:17.585Z,1025.64
2017-01-23T00:06:18.255Z,1025.65
2017-01-23T00:07:18.919Z,1025.6
2017-01-23T00:08:19.601Z,1025.61
2017-01-23T00:09:20.264Z,1025.61
2017-01-23T00:10:20.935Z,1025.61
2017-01-23T00:11:21.619Z,1025.66
2017-01-23T00:12:22.281Z,1025.63
2017-01-23T00:13:22.951Z,1025.63
2017-01-23T00:14:23.622Z,1025.64
2017-01-23T00:15:24.295Z,1025.64
2017-01-23T00:16:24.974Z,1025.64
2017-01-23T00:17:25.645Z,1025.63
2017-01-23T00:18:26.318Z,1025.65
2017-01-23T00:19:26.998Z,1025.65
2017-01-23T00:20:27.666Z,1025.66
2017-01-23T00:21:28.347Z,1025.64
2017-01-23T00:22:29.004Z,1025.63
2017-01-23T00:23:29.682Z,1025.65
2017-01-23T00:24:30.364Z,1025.56
2017-01-23T00:25:31.025Z,1025.64
2017-01-23T00:26:31.705Z,1025.6
2017-01-23T00:27:32.395Z,1025.62
2017-01-23T00:28:33.105Z,1025.62
2017-01-23T00:29:33.794Z,1025.6
2017-01-23T00:30:34.456Z,1025.58
2017-01-23T00:31:35.136Z,1025.57
2017-01-23T00:32:35.943Z,1025.61
2017-01-23T00:33:36.630Z,1025.58
2017-01-23T00:34:37.316Z,1025.58
2017-01-23T00:35:37.991Z,1025.56
2017-01-23T00:36:38.667Z,1025.61
2017-01-23T00:37:39.354Z,1025.58
2017-01-23T00:38:40.024Z,1025.53
2017-01-23T00:39:40.706Z,1025.58
2017-01-23T00:40:41.374Z,1025.54
2017-01-23T00:41:42.056Z,1025.57
2017-01-23T00:42:42.725Z,1025.53
2017-01-23T00:43:43.400Z,1025.53
2017-01-23T00:44:44.056Z,1025.54
2017-01-23T00:45:44.732Z,1025.53
2017-01-23T00:46:45.398Z,1025.52
2017-01-23T00:47:46.065Z,1025.47
2017-01-23T00:48:46.736Z,1025.46
2017-01-23T00:49:47.396Z,1025.46
2017-01-23T00:50:48.075Z,1025.46
2017-01-23T00:51:48.744Z,1025.44
2017-01-23T00:52:49.434Z,1025.39
2017-01-23T00:53:50.103Z,1025.4
2017-01-23T00:54:50.776Z,1025.37
2017-01-23T00:55:51.443Z,1025.37
2017-01-23T00:56:52.100Z,1025.39
2017-01-23T00:57:52.777Z,1025.4
2017-01-23T00:58:53.438Z,1025.37
2017-01-23T00:59:54.117Z,1025.38
2017-01-23T01:00:54.791Z,1025.43
2017-01-23T01:01:55.471Z,1025.39
2017-01-23T01:02:56.141Z,1025.45
2017-01-23T01:03:56.808Z,1025.42
2017-01-23T01:04:57.469Z,1025.4
2017-01-23T01:05:58.155Z,1025.43
2017-01-23T01:06:58.839Z,1025.4
2017-01-23T01:07:59.500Z,1025.42
2017-01-23T01:09:00.176Z,1025.4
2017-01-23T01:10:00.846Z,1025.42
2017-01-23T01:11:01.516Z,1025.46
2017-01-23T01:12:02.192Z,1025.42
2017-01-23T01:13:02.871Z,1025.44
2017-01-23T01:14:03.531Z,1025.49
2017-01-23T01:15:04.197Z,1025.48
2017-01-23T01:16:04.881Z,1025.57
2017-01-23T01:17:05.554Z,1025.58
2017-01-23T01:18:06.225Z,1025.58
2017-01-23T01:19:06.906Z,1025.55
2017-01-23T01:20:07.572Z,1025.56
2017-01-23T01:21:08.236Z,1025.51
2017-01-23T01:22:08.909Z,1025.47
2017-01-23T01:23:09.571Z,1025.48
2017-01-23T01:24:10.238Z,1025.5
2017-01-23T01:25:10.926Z,1025.51
2017-01-23T01:26:11.634Z,1025.49
2017-01-23T01:27:12.305Z,1025.49
2017-01-23T01:28:13.001Z,1025.5
2017-01-23T01:29:13.724Z,1025.48
2017-01-23T01:30:14.418Z,1025.43
2017-01-23T01:31:15.109Z,1025.48
2017-01-23T01:32:15.773Z,1025.47
2017-01-23T01:33:16.448Z,1025.45
2017-01-23T01:34:17.101Z,1025.46
2017-01-23T01:35:17.779Z,1025.42
2017-01-23T01:36:18.453Z,1025.45
2017-01-23T01:37:19.120Z,1025.43
2017-01-23T01:38:19.800Z,1025.38
2017-01-23T01:39:20.467Z,1025.33
2017-01-23T01:40:21.142Z,1025.31
2017-01-23T01:41:21.801Z,1025.35
2017-01-23T01:42:22.484Z,1025.34
2017-01-23T01:43:23.156Z,1025.35
2017-01-23T01:44:23.825Z,1025.28
2017-01-23T01:45:24.500Z,1025.3
2017-01-23T01:46:25.167Z,1025.3
2017-01-23T01:47:25.850Z,1025.28
2017-01-23T01:48:26.521Z,1025.24
2017-01-23T01:49:27.190Z,1025.24
2017-01-23T01:50:27.857Z,1025.25
2017-01-23T01:51:28.552Z,1025.28
2017-01-23T01:52:29.198Z,1025.26
2017-01-23T01:53:29.878Z,1025.3
2017-01-23T01:54:30.539Z,1025.23
2017-01-23T01:55:31.214Z,1025.25
2017-01-23T01:56:31.901Z,1025.29
2017-01-23T01:57:32.565Z,1025.26
2017-01-23T01:58:33.276Z,1025.19
2017-01-23T01:59:33.957Z,1025.22
2017-01-23T02:00:34.629Z,1025.25
2017-01-23T02:01:35.303Z,1025.24
2017-01-23T02:02:35.974Z,1025.26
2017-01-23T02:03:36.650Z,1025.28
2017-01-23T02:04:37.318Z,1025.29
2017-01-23T02:05:37.989Z,1025.28
2017-01-23T02:06:38.694Z,1025.25
2017-01-23T02:07:39.356Z,1025.23
2017-01-23T02:08:40.036Z,1025.28
2017-01-23T02:09:40.710Z,1025.29
2017-01-23T02:10:41.392Z,1025.28
2017-01-23T02:11:42.067Z,1025.32
2017-01-23T02:12:42.754Z,1025.29
2017-01-23T02:13:43.423Z,1025.29
2017-01-23T02:14:44.105Z,1025.27
2017-01-23T02:15:44.795Z,1025.26
2017-01-23T02:16:45.477Z,1025.2
2017-01-23T02:17:46.136Z,1025.22
2017-01-23T02:18:46.842Z,1025.22
2017-01-23T02:19:47.518Z,1025.22
2017-01-23T02:20:48.190Z,1025.24
2017-01-23T02:21:48.860Z,1025.22
2017-01-23T02:22:49.539Z,1025.23
2017-01-23T02:23:50.233Z,1025.21
2017-01-23T02:24:50.919Z,1025.22
2017-01-23T02:25:51.593Z,1025.22
2017-01-23T02:26:52.270Z,1025.23
2017-01-23T02:27:52.948Z,1025.31
2017-01-23T02:28:53.646Z,1025.29
2017-01-23T02:29:54.314Z,1025.29
2017-01-23T02:30:54.989Z,1025.3
2017-01-23T02:31:55.682Z,1025.31
2017-01-23T02:32:56.369Z,1025.31
2017-01-23T02:33:57.034Z,1025.31
2017-01-23T02:34:57.707Z,1025.3
2017-01-23T02:35:58.388Z,1025.3
2017-01-23T02:36:59.059Z,1025.32
2017-01-23T02:37:59.736Z,1025.3
2017-01-23T02:39:00.410Z,1025.3
2017-01-23T02:40:01.087Z,1025.3
2017-01-23T02:41:01.758Z,1025.33
2017-01-23T02:42:02.427Z,1025.29
2017-01-23T02:43:03.103Z,1025.33
2017-01-23T02:44:03.781Z,1025.36
2017-01-23T02:45:04.465Z,1025.34
2017-01-23T02:46:05.128Z,1025.32
2017-01-23T02:47:05.797Z,1025.29
2017-01-23T02:48:06.498Z,1025.25
2017-01-23T02:49:07.186Z,1025.27
2017-01-23T02:50:07.863Z,1025.23
2017-01-23T02:51:08.560Z,1025.25
2017-01-23T02:52:09.256Z,1025.22
2017-01-23T02:53:09.934Z,1025.21
2017-01-23T02:54:10.607Z,1025.16
2017-01-23T02:55:11.275Z,1025.13
2017-01-23T02:56:11.963Z,1025.09
2017-01-23T02:57:12.635Z,1025.08
2017-01-23T02:58:13.315Z,1025.08
2017-01-23T02:59:13.975Z,1025.08
2017-01-23T03:00:14.640Z,1025.1
2017-01-23T03:01:15.323Z,1025.07
2017-01-23T03:02:15.986Z,1025.1
2017-01-23T03:03:16.656Z,1025.13
2017-01-23T03:04:17.329Z,1025.14
2017-01-23T03:05:18.013Z,1025.15
2017-01-23T03:06:18.681Z,1025.11
2017-01-23T03:07:19.360Z,1025.16
2017-01-23T03:08:20.035Z,1025.15
2017-01-23T03:09:20.724Z,1025.21
2017-01-23T03:10:21.392Z,1025.21
2017-01-23T03:11:22.071Z,1025.16
2017-01-23T03:12:22.743Z,1025.18
2017-01-23T03:13:23.414Z,1025.19
2017-01-23T03:14:24.089Z,1025.17
2017-01-23T03:15:24.759Z,1025.21
2017-01-23T03:16:25.447Z,1025.16
2017-01-23T03:17:26.134Z,1025.17
2017-01-23T03:18:26.804Z,1025.15
2017-01-23T03:19:27.486Z,1025.16
2017-01-23T03:20:28.159Z,1025.13
2017-01-23T03:21:28.854Z,1025.15
2017-01-23T03:22:29.520Z,1025.19
2017-01-23T03:23:30.205Z,1025.19
2017-01-23T03:24:30.877Z,1025.16
2017-01-23T03:25:31.543Z,1025.2
2017-01-23T03:26:32.214Z,1025.15
2017-01-23T03:27:32.897Z,1025.17
2017-01-23T03:28:33.600Z,1025.18
2017-01-23T03:29:34.260Z,1025.2
2017-01-23T03:30:34.940Z,1025.14
2017-01-23T03:31:35.624Z,1025.17
2017-01-23T03:32:36.291Z,1025.17
2017-01-23T03:33:36.971Z,1025.19
2017-01-23T03:34:37.656Z,1025.16
2017-01-23T03:35:38.330Z,1025.16
2017-01-23T03:36:39.009Z,1025.18
2017-01-23T03:37:39.685Z,1025.15
2017-01-23T03:38:40.360Z,1025.13
2017-01-23T03:39:41.043Z,1025.12
2017-01-23T03:40:41.710Z,1025.07
2017-01-23T03:41:42.383Z,1025.1
2017-01-23T03:42:43.062Z,1025.09
2017-01-23T03:43:43.730Z,1025.08
2017-01-23T03:44:44.402Z,1025.13
2017-01-23T03:45:45.073Z,1025.15
2017-01-23T03:46:45.751Z,1025.11
2017-01-23T03:47:46.411Z,1025.15
2017-01-23T03:48:47.095Z,1025.15
2017-01-23T03:49:47.766Z,1025.15
2017-01-23T03:50:48.443Z,1025.16
2017-01-23T03:51:49.109Z,1025.16
2017-01-23T03:52:49.780Z,1025.2
2017-01-23T03:53:50.458Z,1025.16
2017-01-23T03:54:51.124Z,1025.21
2017-01-23T03:55:51.798Z,1025.2
2017-01-23T03:56:52.490Z,1025.2
2017-01-23T03:57:53.186Z,1025.22
2017-01-23T03:58:53.849Z,1025.24
2017-01-23T03:59:54.516Z,1025.24
2017-01-23T04:00:55.200Z,1025.24
2017-01-23T04:01:55.898Z,1025.23
2017-01-23T04:02:56.600Z,1025.25
2017-01-23T04:03:57.268Z,1025.26
2017-01-23T04:04:57.940Z,1025.23
2017-01-23T04:05:58.613Z,1025.24
2017-01-23T04:06:59.290Z,1025.22
2017-01-23T04:07:59.958Z,1025.17
2017-01-23T04:09:00.637Z,1025.16
2017-01-23T04:10:01.303Z,1025.17
2017-01-23T04:11:01.996Z,1025.15
2017-01-23T04:12:02.688Z,1025.12
2017-01-23T04:13:03.369Z,1025.15
2017-01-23T04:14:04.044Z,1025.12
2017-01-23T04:15:04.718Z,1025.09
2017-01-23T04:16:05.379Z,1025.08
2017-01-23T04:17:06.053Z,1025.1
2017-01-23T04:18:06.737Z,1025.1
2017-01-23T04:19:07.408Z,1025.06
2017-01-23T04:20:08.082Z,1025.06
2017-01-23T04:21:08.749Z,1024.98
2017-01-23T04:22:09.414Z,1024.96
2017-01-23T04:23:10.094Z,1024.99
2017-01-23T04:24:10.777Z,1025.02
2017-01-23T04:25:11.429Z,1024.98
2017-01-23T04:26:12.101Z,1024.95
2017-01-23T04:27:12.774Z,1024.99
2017-01-23T04:28:13.449Z,1024.99
2017-01-23T04:29:14.119Z,1025
2017-01-23T04:30:14.816Z,1025
2017-01-23T04:31:15.469Z,1024.98
2017-01-23T04:32:16.141Z,1024.98
2017-01-23T04:33:16.813Z,1025.03
2017-01-23T04:34:17.478Z,1025.03
2017-01-23T04:35:18.156Z,1025.06
2017-01-23T04:36:18.862Z,1025.07
2017-01-23T04:37:19.516Z,1025.08
2017-01-23T04:38:20.180Z,1025.06
2017-01-23T04:39:20.849Z,1025.12
2017-01-23T04:40:21.514Z,1025.13
2017-01-23T04:41:22.192Z,1025.16
2017-01-23T04:42:22.863Z,1025.17
2017-01-23T04:43:23.544Z,1025.14
2017-01-23T04:44:24.220Z,1025.15
2017-01-23T04:45:24.883Z,1025.14
2017-01-23T04:46:25.554Z,1025.17
2017-01-23T04:47:26.264Z,1025.17
2017-01-23T04:48:26.954Z,1025.16
2017-01-23T04:49:27.630Z,1025.16
2017-01-23T04:50:28.301Z,1025.23
2017-01-23T04:51:28.971Z,1025.21
2017-01-23T04:52:29.648Z,1025.26
2017-01-23T04:53:30.321Z,1025.29
2017-01-23T04:54:30.998Z,1025.32
2017-01-23T04:55:31.664Z,1025.39
2017-01-23T04:56:32.329Z,1025.41
2017-01-23T04:57:33.024Z,1025.43
2017-01-23T04:58:33.688Z,1025.45
2017-01-23T04:59:34.373Z,1025.45
2017-01-23T05:00:35.048Z,1025.49
2017-01-23T05:01:35.713Z,1025.48
2017-01-23T05:02:36.377Z,1025.48
2017-01-23T05:03:37.058Z,1025.47
2017-01-23T05:04:37.732Z,1025.44
2017-01-23T05:05:38.395Z,1025.46
2017-01-23T05:06:39.072Z,1025.44
2017-01-23T05:07:39.740Z,1025.42
2017-01-23T05:08:40.415Z,1025.38
2017-01-23T05:09:41.086Z,1025.33
2017-01-23T05:10:41.759Z,1025.33
2017-01-23T05:11:42.423Z,1025.34
2017-01-23T05:12:43.096Z,1025.3
2017-01-23T05:13:43.787Z,1025.34
2017-01-23T05:14:44.452Z,1025.34
2017-01-23T05:15:45.133Z,1025.38
2017-01-23T05:16:45.825Z,1025.39
2017-01-23T05:17:46.494Z,1025.36
2017-01-23T05:18:47.162Z,1025.38
2017-01-23T05:19:47.831Z,1025.37
2017-01-23T05:20:48.525Z,1025.33
2017-01-23T05:21:49.193Z,1025.32
2017-01-23T05:22:49.868Z,1025.34
2017-01-23T05:23:50.555Z,1025.31
2017-01-23T05:24:51.234Z,1025.31
2017-01-23T05:25:51.903Z,1025.3
2017-01-23T05:26:52.591Z,1025.26
2017-01-23T05:27:53.261Z,1025.27
2017-01-23T05:28:53.929Z,1025.24
2017-01-23T05:29:54.603Z,1025.24
2017-01-23T05:30:55.276Z,1025.26
2017-01-23T05:31:55.951Z,1025.26
2017-01-23T05:32:56.624Z,1025.26
2017-01-23T05:33:57.287Z,1025.24
2017-01-23T05:34:57.968Z,1025.24
2017-01-23T05:35:58.637Z,1025.22
2017-01-23T05:36:59.305Z,1025.21
2017-01-23T05:37:59.980Z,1025.19
2017-01-23T05:39:00.650Z,1025.26
2017-01-23T05:40:01.321Z,1025.3
2017-01-23T05:41:02.003Z,1025.3
2017-01-23T05:42:02.675Z,1025.31
2017-01-23T05:43:03.351Z,1025.34
2017-01-23T05:44:04.022Z,1025.34
2017-01-23T05:45:04.718Z,1025.37
2017-01-23T05:46:05.407Z,1025.44
2017-01-23T05:47:06.083Z,1025.47
2017-01-23T05:48:06.761Z,1025.41
2017-01-23T05:49:07.441Z,1025.42
2017-01-23T05:50:08.116Z,1025.45
2017-01-23T05:51:08.781Z,1025.49
2017-01-23T05:52:09.462Z,1025.49
2017-01-23T05:53:10.132Z,1025.47
2017-01-23T05:54:10.841Z,1025.54
2017-01-23T05:55:11.515Z,1025.52
2017-01-23T05:56:12.186Z,1025.55
2017-01-23T05:57:12.858Z,1025.54
2017-01-23T05:58:13.518Z,1025.5
2017-01-23T05:59:14.195Z,1025.51
2017-01-23T06:00:14.866Z,1025.54
2017-01-23T06:01:15.554Z,1025.5
2017-01-23T06:02:16.227Z,1025.47
2017-01-23T06:03:16.902Z,1025.46
2017-01-23T06:04:17.588Z,1025.42
2017-01-23T06:05:18.281Z,1025.47
2017-01-23T06:06:18.953Z,1025.47
2017-01-23T06:07:19.652Z,1025.49
2017-01-23T06:08:20.357Z,1025.51
2017-01-23T06:09:21.052Z,1025.46
2017-01-23T06:10:21.719Z,1025.48
2017-01-23T06:11:22.395Z,1025.43
2017-01-23T06:12:23.060Z,1025.5
2017-01-23T06:13:23.734Z,1025.47
2017-01-23T06:14:24.410Z,1025.47
2017-01-23T06:15:25.088Z,1025.5
2017-01-23T06:16:25.753Z,1025.42
2017-01-23T06:17:26.433Z,1025.47
2017-01-23T06:18:27.107Z,1025.43
2017-01-23T06:19:27.783Z,1025.41
2017-01-23T06:20:28.454Z,1025.4
2017-01-23T06:21:29.123Z,1025.4
2017-01-23T06:22:29.790Z,1025.37
2017-01-23T06:23:30.471Z,1025.32
2017-01-23T06:24:31.143Z,1025.26
2017-01-23T06:25:31.821Z,1025.27
2017-01-23T06:26:32.509Z,1025.31
2017-01-23T06:27:33.178Z,1025.25
2017-01-23T06:28:33.855Z,1025.26
2017-01-23T06:29:34.535Z,1025.29
2017-01-23T06:30:35.193Z,1025.25
2017-01-23T06:31:35.857Z,1025.25
2017-01-23T06:32:36.528Z,1025.29
2017-01-23T06:33:37.196Z,1025.24
2017-01-23T06:34:37.893Z,1025.24
2017-01-23T06:35:38.585Z,1025.24
2017-01-23T06:36:39.279Z,1025.24
2017-01-23T06:37:39.953Z,1025.25
2017-01-23T06:38:40.639Z,1025.23
2017-01-23T06:39:41.326Z,1025.27
2017-01-23T06:40:41.999Z,1025.23
2017-01-23T06:41:42.678Z,1025.17
2017-01-23T06:42:43.344Z,1025.22
2017-01-23T06:43:44.022Z,1025.2
2017-01-23T06:44:44.686Z,1025.2
2017-01-23T06:45:45.395Z,1025.24
2017-01-23T06:46:46.060Z,1025.29
2017-01-23T06:47:46.745Z,1025.26
2017-01-23T06:48:47.420Z,1025.28
2017-01-23T06:49:48.083Z,1025.32
2017-01-23T06:50:48.777Z,1025.34
2017-01-23T06:51:49.458Z,1025.36
2017-01-23T06:52:50.128Z,1025.37
2017-01-23T06:53:50.804Z,1025.43
2017-01-23T06:54:51.491Z,1025.44
2017-01-23T06:55:52.197Z,1025.43
2017-01-23T06:56:52.858Z,1025.4
2017-01-23T06:57:53.543Z,1025.46
2017-01-23T06:58:54.225Z,1025.42
2017-01-23T06:59:54.899Z,1025.4
2017-01-23T07:00:55.589Z,1025.45
2017-01-23T07:01:56.272Z,1025.46
2017-01-23T07:02:56.956Z,1025.52
2017-01-23T07:03:57.634Z,1025.5
2017-01-23T07:04:58.306Z,1025.51
2017-01-23T07:05:58.968Z,1025.5
2017-01-23T07:06:59.658Z,1025.5
2017-01-23T07:08:00.335Z,1025.53
2017-01-23T07:09:01.008Z,1025.5
2017-01-23T07:10:01.675Z,1025.49
2017-01-23T07:11:02.350Z,1025.48
2017-01-23T07:12:03.019Z,1025.52
2017-01-23T07:13:03.752Z,1025.45
2017-01-23T07:14:04.420Z,1025.46
2017-01-23T07:15:05.092Z,1025.47
2017-01-23T07:16:05.763Z,1025.44
2017-01-23T07:17:06.450Z,1025.44
2017-01-23T07:18:07.131Z,1025.46
2017-01-23T07:19:07.841Z,1025.47
2017-01-23T07:20:08.528Z,1025.49
2017-01-23T07:21:09.208Z,1025.46
2017-01-23T07:22:09.877Z,1025.51
2017-01-23T07:23:10.544Z,1025.5
2017-01-23T07:24:11.239Z,1025.51
2017-01-23T07:25:11.924Z,1025.51
2017-01-23T07:26:12.637Z,1025.48
2017-01-23T07:27:13.310Z,1025.56
2017-01-23T07:28:14.028Z,1025.55
2017-01-23T07:29:14.720Z,1025.54
2017-01-23T07:30:15.392Z,1025.57
2017-01-23T07:31:16.061Z,1025.58
2017-01-23T07:32:16.729Z,1025.64
2017-01-23T07:33:17.410Z,1025.64
2017-01-23T07:34:18.103Z,1025.65
2017-01-23T07:35:18.802Z,1025.68
2017-01-23T07:36:19.498Z,1025.63
2017-01-23T07:37:20.183Z,1025.66
2017-01-23T07:38:20.890Z,1025.64
2017-01-23T07:39:21.571Z,1025.68
2017-01-23T07:40:22.257Z,1025.69
2017-01-23T07:41:22.962Z,1025.69
2017-01-23T07:42:23.641Z,1025.69
2017-01-23T07:43:24.338Z,1025.69
2017-01-23T07:44:25.047Z,1025.66
2017-01-23T07:45:25.743Z,1025.65
2017-01-23T07:46:26.409Z,1025.65
2017-01-23T07:47:27.075Z,1025.66
2017-01-23T07:48:27.747Z,1025.61
2017-01-23T07:49:28.460Z,1025.63
2017-01-23T07:50:29.176Z,1025.63
2017-01-23T07:51:29.845Z,1025.63
2017-01-23T07:52:30.527Z,1025.65
2017-01-23T07:53:31.202Z,1025.64
2017-01-23T07:54:31.880Z,1025.62
2017-01-23T07:55:32.562Z,1025.58
2017-01-23T07:56:33.251Z,1025.56
2017-01-23T07:57:33.909Z,1025.54
2017-01-23T07:58:34.587Z,1025.57
2017-01-23T07:59:35.249Z,1025.58
2017-01-23T08:00:35.932Z,1025.57
2017-01-23T08:01:36.605Z,1025.51
2017-01-23T08:02:37.274Z,1025.5
2017-01-23T08:03:37.958Z,1025.49
2017-01-23T08:04:38.627Z,1025.45
2017-01-23T08:05:39.295Z,1025.44
2017-01-23T08:06:39.970Z,1025.37
2017-01-23T08:07:40.636Z,1025.38
2017-01-23T08:08:41.310Z,1025.41
2017-01-23T08:09:41.992Z,1025.36
2017-01-23T08:10:42.680Z,1025.42
2017-01-23T08:11:43.353Z,1025.41
2017-01-23T08:12:44.032Z,1025.44
2017-01-23T08:13:44.705Z,1025.47
2017-01-23T08:14:45.397Z,1025.46
2017-01-23T08:15:46.071Z,1025.49
2017-01-23T08:16:46.739Z,1025.46
2017-01-23T08:17:47.416Z,1025.45
2017-01-23T08:18:48.092Z,1025.46
2017-01-23T08:19:48.773Z,1025.43
2017-01-23T08:20:49.442Z,1025.4
2017-01-23T08:21:50.125Z,1025.4
2017-01-23T08:22:50.813Z,1025.41
2017-01-23T08:23:51.488Z,1025.37
2017-01-23T08:24:52.169Z,1025.36
2017-01-23T08:25:52.840Z,1025.41
2017-01-23T08:26:53.524Z,1025.41
2017-01-23T08:27:54.199Z,1025.43
2017-01-23T08:28:54.884Z,1025.4
2017-01-23T08:29:55.569Z,1025.41
2017-01-23T08:30:56.253Z,1025.4
2017-01-23T08:31:56.932Z,1025.42
2017-01-23T08:32:57.623Z,1025.38
2017-01-23T08:33:58.292Z,1025.38
2017-01-23T08:34:58.962Z,1025.38
2017-01-23T08:35:59.635Z,1025.43
2017-01-23T08:37:00.312Z,1025.49
2017-01-23T08:38:00.983Z,1025.42
2017-01-23T08:39:01.672Z,1025.43
2017-01-23T08:40:02.353Z,1025.41
2017-01-23T08:41:03.032Z,1025.47
2017-01-23T08:42:03.715Z,1025.45
2017-01-23T08:43:04.387Z,1025.44
2017-01-23T08:44:05.088Z,1025.41
2017-01-23T08:45:05.764Z,1025.42
2017-01-23T08:46:06.459Z,1025.45
2017-01-23T08:47:07.127Z,1025.47
2017-01-23T08:48:07.811Z,1025.49
2017-01-23T08:49:08.495Z,1025.49
2017-01-23T08:50:09.169Z,1025.5
2017-01-23T08:51:09.850Z,1025.45
2017-01-23T08:52:10.517Z,1025.51
2017-01-23T08:53:11.203Z,1025.48
2017-01-23T08:54:11.863Z,1025.53
2017-01-23T08:55:12.529Z,1025.52
2017-01-23T08:56:13.211Z,1025.5
2017-01-23T08:57:13.894Z,1025.49
2017-01-23T08:58:14.564Z,1025.49
2017-01-23T08:59:15.251Z,1025.49
2017-01-23T09:00:15.952Z,1025.46
2017-01-23T09:01:16.620Z,1025.48
2017-01-23T09:02:17.304Z,1025.52
2017-01-23T09:03:17.980Z,1025.48
2017-01-23T09:04:18.660Z,1025.49
2017-01-23T09:05:19.379Z,1025.51
2017-01-23T09:06:20.044Z,1025.55
2017-01-23T09:07:20.726Z,1025.55
2017-01-23T09:08:21.402Z,1025.57
2017-01-23T09:09:22.095Z,1025.59
2017-01-23T09:10:22.778Z,1025.6
2017-01-23T09:11:23.444Z,1025.59
2017-01-23T09:12:24.117Z,1025.6
2017-01-23T09:13:24.791Z,1025.64
2017-01-23T09:14:25.466Z,1025.61
2017-01-23T09:15:26.176Z,1025.63
2017-01-23T09:16:26.852Z,1025.64
2017-01-23T09:17:27.534Z,1025.62
2017-01-23T09:18:28.202Z,1025.64
2017-01-23T09:19:28.889Z,1025.66
2017-01-23T09:20:29.556Z,1025.69
2017-01-23T09:21:30.253Z,1025.68
2017-01-23T09:22:30.933Z,1025.7
2017-01-23T09:23:31.630Z,1025.65
2017-01-23T09:24:32.295Z,1025.69
2017-01-23T09:25:32.964Z,1025.67
2017-01-23T09:26:33.631Z,1025.68
2017-01-23T09:27:34.314Z,1025.65
2017-01-23T09:28:34.986Z,1025.65
2017-01-23T09:29:35.658Z,1025.68
2017-01-23T09:30:36.322Z,1025.69
2017-01-23T09:31:36.987Z,1025.66
2017-01-23T09:32:37.667Z,1025.69
2017-01-23T09:33:38.336Z,1025.6
2017-01-23T09:34:39.012Z,1025.65
2017-01-23T09:35:39.696Z,1025.67
2017-01-23T09:36:40.359Z,1025.66
2017-01-23T09:37:41.027Z,1025.6
2017-01-23T09:38:41.714Z,1025.65
2017-01-23T09:39:42.586Z,1025.66
2017-01-23T09:40:43.269Z,1025.6
2017-01-23T09:41:43.937Z,1025.61
2017-01-23T09:42:44.630Z,1025.6
2017-01-23T09:43:45.304Z,1025.63
2017-01-23T09:44:45.974Z,1025.6
2017-01-23T09:45:46.651Z,1025.61
2017-01-23T09:46:47.338Z,1025.56
2017-01-23T09:47:48.029Z,1025.57
2017-01-23T09:48:48.717Z,1025.56
2017-01-23T09:49:49.395Z,1025.6
2017-01-23T09:50:50.077Z,1025.62
2017-01-23T09:51:50.751Z,1025.61
2017-01-23T09:52:51.446Z,1025.61
2017-01-23T09:53:52.127Z,1025.66
2017-01-23T09:54:52.801Z,1025.64
2017-01-23T09:55:53.507Z,1025.58
2017-01-23T09:56:54.157Z,1025.62
2017-01-23T09:57:54.858Z,1025.57
2017-01-23T09:58:55.532Z,1025.56
2017-01-23T09:59:56.242Z,1025.54
2017-01-23T10:00:56.928Z,1025.57
2017-01-23T10:01:57.609Z,1025.54
2017-01-23T10:02:58.288Z,1025.55
2017-01-23T10:03:58.963Z,1025.59
2017-01-23T10:04:59.640Z,1025.58
2017-01-23T10:06:00.324Z,1025.59
2017-01-23T10:07:01.001Z,1025.55
2017-01-23T10:08:01.681Z,1025.6
2017-01-23T10:09:02.385Z,1025.57
2017-01-23T10:10:03.078Z,1025.56
2017-01-23T10:11:03.742Z,1025.58
2017-01-23T10:12:04.420Z,1025.58
2017-01-23T10:13:05.109Z,1025.57
2017-01-23T10:14:05.795Z,1025.57
2017-01-23T10:15:06.533Z,1025.58
2017-01-23T10:16:07.197Z,1025.57
2017-01-23T10:17:07.882Z,1025.61
2017-01-23T10:18:08.562Z,1025.55
2017-01-23T10:19:09.251Z,1025.56
2017-01-23T10:20:09.935Z,1025.55
2017-01-23T10:21:10.622Z,1025.57
2017-01-23T10:22:11.298Z,1025.56
2017-01-23T10:23:11.969Z,1025.58
2017-01-23T10:24:12.664Z,1025.57
2017-01-23T10:25:13.329Z,1025.55
2017-01-23T10:26:14.041Z,1025.52
2017-01-23T10:27:14.721Z,1025.55
2017-01-23T10:28:15.412Z,1025.54
2017-01-23T10:29:16.093Z,1025.54
2017-01-23T10:30:16.771Z,1025.54
2017-01-23T10:31:17.476Z,1025.54
2017-01-23T10:32:18.159Z,1025.53
2017-01-23T10:33:18.837Z,1025.53
2017-01-23T10:34:19.514Z,1025.55
2017-01-23T10:35:20.206Z,1025.56
2017-01-23T10:36:20.887Z,1025.51
2017-01-23T10:37:21.585Z,1025.53
2017-01-23T10:38:22.249Z,1025.51
2017-01-23T10:39:22.934Z,1025.56
2017-01-23T10:40:23.616Z,1025.52
2017-01-23T10:41:24.323Z,1025.52
2017-01-23T10:42:24.997Z,1025.48
2017-01-23T10:43:25.678Z,1025.46
2017-01-23T10:44:26.367Z,1025.48
2017-01-23T10:45:27.035Z,1025.48
2017-01-23T10:46:27.708Z,1025.5
2017-01-23T10:47:28.402Z,1025.48
2017-01-23T10:48:29.090Z,1025.46
2017-01-23T10:49:29.767Z,1025.46
2017-01-23T10:50:30.439Z,1025.44
2017-01-23T10:51:31.126Z,1025.43
2017-01-23T10:52:31.827Z,1025.45
2017-01-23T10:53:32.578Z,1025.43
2017-01-23T10:54:33.373Z,1025.42
2017-01-23T10:55:34.141Z,1025.43
2017-01-23T10:56:34.933Z,1025.42
2017-01-23T10:57:35.632Z,1025.41
2017-01-23T10:58:36.305Z,1025.42
2017-01-23T10:59:36.991Z,1025.42
2017-01-23T11:00:37.697Z,1025.44
2017-01-23T11:01:38.380Z,1025.46
2017-01-23T11:02:39.056Z,1025.47
2017-01-23T11:03:39.760Z,1025.47
2017-01-23T11:04:40.441Z,1025.5
2017-01-23T11:05:41.114Z,1025.52
2017-01-23T11:06:41.824Z,1025.5
2017-01-23T11:07:42.504Z,1025.46
2017-01-23T11:08:43.175Z,1025.5
2017-01-23T11:09:43.866Z,1025.48
2017-01-23T11:10:44.547Z,1025.49
2017-01-23T11:11:45.252Z,1025.47
2017-01-23T11:12:45.940Z,1025.51
2017-01-23T11:13:46.637Z,1025.44
2017-01-23T11:14:47.333Z,1025.52
2017-01-23T11:15:48.017Z,1025.56
2017-01-23T11:16:48.704Z,1025.54
2017-01-23T11:17:49.382Z,1025.53
2017-01-23T11:18:50.052Z,1025.52
2017-01-23T11:19:50.731Z,1025.51
2017-01-23T11:20:51.418Z,1025.51
2017-01-23T11:21:52.111Z,1025.49
2017-01-23T11:22:52.823Z,1025.49
2017-01-23T11:23:53.505Z,1025.46
2017-01-23T11:24:54.199Z,1025.43
2017-01-23T11:25:54.869Z,1025.42
2017-01-23T11:26:55.548Z,1025.42
2017-01-23T11:27:56.215Z,1025.42
2017-01-23T11:28:56.901Z,1025.39
2017-01-23T11:29:57.587Z,1025.38
2017-01-23T11:30:58.263Z,1025.39
2017-01-23T11:31:58.956Z,1025.38
2017-01-23T11:32:59.632Z,1025.37
2017-01-23T11:34:00.322Z,1025.37
2017-01-23T11:35:01.009Z,1025.32
2017-01-23T11:36:01.680Z,1025.4
2017-01-23T11:37:02.370Z,1025.36
2017-01-23T11:38:03.044Z,1025.38
2017-01-23T11:39:03.735Z,1025.4
2017-01-23T11:40:04.418Z,1025.39
2017-01-23T11:41:05.095Z,1025.37
2017-01-23T11:42:05.783Z,1025.4
2017-01-23T11:43:06.465Z,1025.4
2017-01-23T11:44:07.137Z,1025.4
2017-01-23T11:45:07.821Z,1025.44
2017-01-23T11:46:08.488Z,1025.41
2017-01-23T11:47:09.165Z,1025.4
2017-01-23T11:48:09.850Z,1025.38
2017-01-23T11:49:10.539Z,1025.38
2017-01-23T11:50:11.231Z,1025.38
2017-01-23T11:51:11.915Z,1025.39
2017-01-23T11:52:12.595Z,1025.38
2017-01-23T11:53:13.253Z,1025.39
2017-01-23T11:54:13.937Z,1025.35
2017-01-23T11:55:14.613Z,1025.36
2017-01-23T11:56:15.285Z,1025.35
2017-01-23T11:57:15.969Z,1025.33
2017-01-23T11:58:16.660Z,1025.34
2017-01-23T11:59:17.344Z,1025.38
2017-01-23T12:00:18.021Z,1025.37
2017-01-23T12:01:18.702Z,1025.4
2017-01-23T12:02:19.374Z,1025.33
2017-01-23T12:03:20.070Z,1025.38
2017-01-23T12:04:20.770Z,1025.37
2017-01-23T12:05:21.468Z,1025.34
2017-01-23T12:06:22.167Z,1025.32
2017-01-23T12:07:22.854Z,1025.35
2017-01-23T12:08:23.536Z,1025.36
2017-01-23T12:09:24.216Z,1025.32
2017-01-23T12:10:24.909Z,1025.33
2017-01-23T12:11:25.576Z,1025.31
2017-01-23T12:12:26.270Z,1025.33
2017-01-23T12:13:26.939Z,1025.29
2017-01-23T12:14:27.624Z,1025.28
2017-01-23T12:15:28.317Z,1025.29
2017-01-23T12:16:29.006Z,1025.3